MGPB

Details ICAO MGPB (PBR)
Name PUERTO BARRIOS
Region Guatemala
Timezone America/Guatemala (UTC-6.0)
Plans Departing 8
Arriving 6
Stats Elevation 33 ft / 10 m (AMSL)
Location 15.730872° -88.583765°
Runways 1
Magnetic Variation 0.146° W
Sunrise 2017-12-17 12:16:06 UTC / 2017-12-17 06:16:06 Local
Sunset 2017-12-17 23:27:46 UTC / 2017-12-17 17:27:46 Local
Advertisement - Login to hide

Runways

ID Width Length Bearing (true) Bearing (mag) Surface Threshold Offset Overrun Length
12 110 ft / 34 m 8,861 ft / 2,701 m 127.91° 128.06° Concrete 0 ft / 0 m 0 ft / 0 m
30 110 ft / 34 m 8,861 ft / 2,701 m 307.92° 308.07° Concrete 0 ft / 0 m 0 ft / 0 m

Map

Weather


0- 5 10 15 20 25 30 35+ Temperature / ° C

Clouds and Precipitation
Forecast for 2017-12-17 18:00 UTC. Updated 33 minutes ago

Ground ~20,000 ft ~40,000 ft Winds

METAR

MGPB 171700Z 00000KT 9999 SCT018TCU 26/23 Q1017 A3003 TCU E

TAF

MGPB 171100Z 1712/1812 00000KT 9999 SCT016 BKN080 TX29/1720Z TN18/1712Z BECMG 1715/1717 06010KT SCT018 PROB40 TEMPO 1723/1806 8000 RADZ BKN016 BECMG 1801/1803 00000KT SCT016

Frequencies

Tower 118.40 MHz TWR
Warning: Do not use this data for real-world aviation or navigation. No guarantee of current accuracy is given.